sensor_id;sensor_type;location;lat;lon;timestamp;P1;durP1;ratioP1;P2;durP2;ratioP2
73599;SDS011;61877;48.246;9.220;2023-01-31T00:01:17;14.13;;;5.88;;
73599;SDS011;61877;48.246;9.220;2023-01-31T00:03:45;15.05;;;7.20;;
73599;SDS011;61877;48.246;9.220;2023-01-31T00:06:12;21.70;;;9.40;;
73599;SDS011;61877;48.246;9.220;2023-01-31T00:08:39;15.27;;;7.07;;
73599;SDS011;61877;48.246;9.220;2023-01-31T00:11:05;14.85;;;6.10;;
73599;SDS011;61877;48.246;9.220;2023-01-31T00:13:31;15.40;;;6.30;;
73599;SDS011;61877;48.246;9.220;2023-01-31T00:15:56;13.73;;;6.05;;
73599;SDS011;61877;48.246;9.220;2023-01-31T00:18:24;15.33;;;6.27;;
73599;SDS011;61877;48.246;9.220;2023-01-31T00:20:49;13.73;;;6.47;;
73599;SDS011;61877;48.246;9.220;2023-01-31T00:23:15;13.30;;;5.57;;
73599;SDS011;61877;48.246;9.220;2023-01-31T00:25:40;14.95;;;5.75;;
73599;SDS011;61877;48.246;9.220;2023-01-31T00:28:06;14.40;;;6.23;;
73599;SDS011;61877;48.246;9.220;2023-01-31T00:30:31;14.30;;;6.00;;
73599;SDS011;61877;48.246;9.220;2023-01-31T00:32:57;12.53;;;5.37;;
73599;SDS011;61877;48.246;9.220;2023-01-31T00:35:23;12.87;;;6.13;;
73599;SDS011;61877;48.246;9.220;2023-01-31T00:37:49;13.73;;;5.85;;
73599;SDS011;61877;48.246;9.220;2023-01-31T00:40:14;12.43;;;6.47;;
73599;SDS011;61877;48.246;9.220;2023-01-31T00:42:40;16.13;;;6.27;;
73599;SDS011;61877;48.246;9.220;2023-01-31T00:45:06;11.87;;;5.53;;
73599;SDS011;61877;48.246;9.220;2023-01-31T00:47:32;14.57;;;6.05;;
73599;SDS011;61877;48.246;9.220;2023-01-31T00:49:57;13.90;;;6.17;;
73599;SDS011;61877;48.246;9.220;2023-01-31T00:52:24;11.00;;;5.43;;
73599;SDS011;61877;48.246;9.220;2023-01-31T00:54:49;13.70;;;6.00;;
73599;SDS011;61877;48.246;9.220;2023-01-31T00:57:15;13.40;;;5.87;;
73599;SDS011;61877;48.246;9.220;2023-01-31T00:59:40;12.90;;;5.83;;
73599;SDS011;61877;48.246;9.220;2023-01-31T01:02:05;12.20;;;6.03;;
73599;SDS011;61877;48.246;9.220;2023-01-31T01:04:31;14.00;;;5.40;;
73599;SDS011;61877;48.246;9.220;2023-01-31T01:06:56;14.27;;;5.70;;
73599;SDS011;61877;48.246;9.220;2023-01-31T01:09:23;12.30;;;5.77;;
73599;SDS011;61877;48.246;9.220;2023-01-31T01:11:48;12.93;;;5.25;;
73599;SDS011;61877;48.246;9.220;2023-01-31T01:14:14;13.13;;;5.50;;
73599;SDS011;61877;48.246;9.220;2023-01-31T01:16:39;12.17;;;5.67;;
73599;SDS011;61877;48.246;9.220;2023-01-31T01:19:06;11.65;;;5.97;;
73599;SDS011;61877;48.246;9.220;2023-01-31T01:21:34;14.43;;;5.97;;
73599;SDS011;61877;48.246;9.220;2023-01-31T01:24:00;12.57;;;6.00;;
73599;SDS011;61877;48.246;9.220;2023-01-31T01:26:27;11.40;;;5.13;;
73599;SDS011;61877;48.246;9.220;2023-01-31T01:28:55;13.50;;;6.07;;
73599;SDS011;61877;48.246;9.220;2023-01-31T01:31:21;15.63;;;6.95;;
73599;SDS011;61877;48.246;9.220;2023-01-31T01:33:48;15.53;;;6.80;;
73599;SDS011;61877;48.246;9.220;2023-01-31T01:36:14;10.40;;;5.28;;
73599;SDS011;61877;48.246;9.220;2023-01-31T01:38:41;13.52;;;5.43;;
73599;SDS011;61877;48.246;9.220;2023-01-31T01:41:08;15.07;;;4.97;;
73599;SDS011;61877;48.246;9.220;2023-01-31T01:43:40;13.95;;;5.28;;
73599;SDS011;61877;48.246;9.220;2023-01-31T01:46:07;12.40;;;5.85;;
73599;SDS011;61877;48.246;9.220;2023-01-31T01:48:36;12.60;;;5.00;;
73599;SDS011;61877;48.246;9.220;2023-01-31T01:51:02;10.57;;;5.38;;
73599;SDS011;61877;48.246;9.220;2023-01-31T01:53:30;12.07;;;5.03;;
73599;SDS011;61877;48.246;9.220;2023-01-31T01:55:56;11.65;;;5.15;;
73599;SDS011;61877;48.246;9.220;2023-01-31T01:58:26;9.80;;;4.80;;
73599;SDS011;61877;48.246;9.220;2023-01-31T02:00:56;11.10;;;4.47;;
73599;SDS011;61877;48.246;9.220;2023-01-31T02:03:22;13.02;;;5.70;;
73599;SDS011;61877;48.246;9.220;2023-01-31T02:05:48;11.13;;;5.20;;
73599;SDS011;61877;48.246;9.220;2023-01-31T02:08:16;11.20;;;4.78;;
73599;SDS011;61877;48.246;9.220;2023-01-31T02:10:45;13.25;;;5.30;;
73599;SDS011;61877;48.246;9.220;2023-01-31T02:13:14;11.90;;;4.82;;
73599;SDS011;61877;48.246;9.220;2023-01-31T02:15:40;11.20;;;4.93;;
73599;SDS011;61877;48.246;9.220;2023-01-31T02:18:07;10.33;;;4.80;;
73599;SDS011;61877;48.246;9.220;2023-01-31T02:21:00;12.27;;;5.35;;
73599;SDS011;61877;48.246;9.220;2023-01-31T02:24:00;10.25;;;5.00;;
73599;SDS011;61877;48.246;9.220;2023-01-31T02:29:53;13.00;;;6.70;;
73599;SDS011;61877;48.246;9.220;2023-01-31T02:32:55;14.05;;;6.53;;
73599;SDS011;61877;48.246;9.220;2023-01-31T02:35:30;13.52;;;5.13;;
73599;SDS011;61877;48.246;9.220;2023-01-31T02:38:11;12.85;;;6.72;;
73599;SDS011;61877;48.246;9.220;2023-01-31T02:40:50;13.55;;;7.78;;
73599;SDS011;61877;48.246;9.220;2023-01-31T02:43:21;15.33;;;7.40;;
73599;SDS011;61877;48.246;9.220;2023-01-31T02:45:51;14.77;;;6.80;;
73599;SDS011;61877;48.246;9.220;2023-01-31T02:48:26;14.40;;;7.03;;
73599;SDS011;61877;48.246;9.220;2023-01-31T02:50:59;13.02;;;6.38;;
73599;SDS011;61877;48.246;9.220;2023-01-31T02:53:30;15.80;;;7.68;;
73599;SDS011;61877;48.246;9.220;2023-01-31T02:55:59;13.53;;;6.60;;
73599;SDS011;61877;48.246;9.220;2023-01-31T02:58:28;14.98;;;6.22;;
73599;SDS011;61877;48.246;9.220;2023-01-31T03:00:59;13.52;;;6.50;;
73599;SDS011;61877;48.246;9.220;2023-01-31T03:03:29;12.43;;;7.18;;
73599;SDS011;61877;48.246;9.220;2023-01-31T03:09:01;12.53;;;6.40;;
73599;SDS011;61877;48.246;9.220;2023-01-31T03:11:31;16.45;;;7.88;;
73599;SDS011;61877;48.246;9.220;2023-01-31T03:14:04;14.32;;;7.82;;
73599;SDS011;61877;48.246;9.220;2023-01-31T03:16:42;14.82;;;7.60;;
73599;SDS011;61877;48.246;9.220;2023-01-31T03:19:17;13.82;;;7.90;;
73599;SDS011;61877;48.246;9.220;2023-01-31T03:21:46;16.77;;;7.10;;
73599;SDS011;61877;48.246;9.220;2023-01-31T03:24:16;15.10;;;7.22;;
73599;SDS011;61877;48.246;9.220;2023-01-31T03:26:43;14.68;;;6.95;;
73599;SDS011;61877;48.246;9.220;2023-01-31T03:29:10;12.85;;;5.85;;
73599;SDS011;61877;48.246;9.220;2023-01-31T03:31:40;11.65;;;5.32;;
73599;SDS011;61877;48.246;9.220;2023-01-31T03:34:11;11.13;;;5.27;;
73599;SDS011;61877;48.246;9.220;2023-01-31T03:36:40;13.82;;;5.80;;
73599;SDS011;61877;48.246;9.220;2023-01-31T03:39:14;14.95;;;6.10;;
73599;SDS011;61877;48.246;9.220;2023-01-31T03:41:51;11.80;;;5.43;;
73599;SDS011;61877;48.246;9.220;2023-01-31T03:44:23;11.02;;;5.00;;
73599;SDS011;61877;48.246;9.220;2023-01-31T03:46:56;13.50;;;5.33;;
73599;SDS011;61877;48.246;9.220;2023-01-31T03:49:26;12.20;;;5.70;;
73599;SDS011;61877;48.246;9.220;2023-01-31T03:51:56;12.32;;;5.57;;
73599;SDS011;61877;48.246;9.220;2023-01-31T03:54:26;12.70;;;5.50;;
73599;SDS011;61877;48.246;9.220;2023-01-31T03:56:59;12.30;;;5.07;;
73599;SDS011;61877;48.246;9.220;2023-01-31T03:59:30;14.93;;;5.33;;
73599;SDS011;61877;48.246;9.220;2023-01-31T04:02:01;13.73;;;5.07;;
73599;SDS011;61877;48.246;9.220;2023-01-31T04:04:33;12.25;;;5.10;;
73599;SDS011;61877;48.246;9.220;2023-01-31T04:07:04;10.80;;;5.30;;
73599;SDS011;61877;48.246;9.220;2023-01-31T04:09:30;11.88;;;5.07;;
73599;SDS011;61877;48.246;9.220;2023-01-31T04:11:58;11.87;;;5.67;;
73599;SDS011;61877;48.246;9.220;2023-01-31T04:14:24;13.65;;;5.30;;
73599;SDS011;61877;48.246;9.220;2023-01-31T04:16:49;10.97;;;4.57;;
73599;SDS011;61877;48.246;9.220;2023-01-31T04:19:14;15.73;;;5.67;;
73599;SDS011;61877;48.246;9.220;2023-01-31T04:21:40;12.47;;;5.20;;
73599;SDS011;61877;48.246;9.220;2023-01-31T04:24:07;12.20;;;5.80;;
73599;SDS011;61877;48.246;9.220;2023-01-31T04:26:32;12.18;;;6.03;;
73599;SDS011;61877;48.246;9.220;2023-01-31T04:28:58;14.07;;;6.60;;
73599;SDS011;61877;48.246;9.220;2023-01-31T04:31:23;11.53;;;5.47;;
73599;SDS011;61877;48.246;9.220;2023-01-31T04:33:48;13.83;;;5.87;;
73599;SDS011;61877;48.246;9.220;2023-01-31T04:36:14;13.02;;;5.43;;
73599;SDS011;61877;48.246;9.220;2023-01-31T04:38:39;12.50;;;5.67;;
73599;SDS011;61877;48.246;9.220;2023-01-31T04:41:06;13.03;;;5.20;;
73599;SDS011;61877;48.246;9.220;2023-01-31T04:43:31;12.15;;;5.60;;
73599;SDS011;61877;48.246;9.220;2023-01-31T04:45:57;13.90;;;5.77;;
73599;SDS011;61877;48.246;9.220;2023-01-31T04:48:22;11.70;;;5.25;;
73599;SDS011;61877;48.246;9.220;2023-01-31T04:50:47;12.67;;;6.20;;
73599;SDS011;61877;48.246;9.220;2023-01-31T04:53:13;13.13;;;4.90;;
73599;SDS011;61877;48.246;9.220;2023-01-31T04:55:38;15.00;;;5.80;;
73599;SDS011;61877;48.246;9.220;2023-01-31T04:58:05;17.43;;;6.17;;
73599;SDS011;61877;48.246;9.220;2023-01-31T05:00:31;15.10;;;6.22;;
73599;SDS011;61877;48.246;9.220;2023-01-31T05:02:57;12.25;;;6.00;;
73599;SDS011;61877;48.246;9.220;2023-01-31T05:05:22;12.83;;;5.93;;
73599;SDS011;61877;48.246;9.220;2023-01-31T05:07:48;15.83;;;5.60;;
73599;SDS011;61877;48.246;9.220;2023-01-31T05:10:13;11.27;;;5.30;;
73599;SDS011;61877;48.246;9.220;2023-01-31T05:12:39;12.10;;;5.20;;
73599;SDS011;61877;48.246;9.220;2023-01-31T05:15:06;12.57;;;5.37;;
73599;SDS011;61877;48.246;9.220;2023-01-31T05:17:32;11.95;;;5.00;;
73599;SDS011;61877;48.246;9.220;2023-01-31T05:19:57;10.90;;;4.90;;
73599;SDS011;61877;48.246;9.220;2023-01-31T05:22:22;14.20;;;5.40;;
73599;SDS011;61877;48.246;9.220;2023-01-31T05:24:48;12.77;;;5.10;;
73599;SDS011;61877;48.246;9.220;2023-01-31T05:27:14;10.67;;;4.97;;
73599;SDS011;61877;48.246;9.220;2023-01-31T05:29:40;13.68;;;5.32;;
73599;SDS011;61877;48.246;9.220;2023-01-31T05:32:07;12.13;;;4.73;;
73599;SDS011;61877;48.246;9.220;2023-01-31T05:34:33;11.05;;;4.97;;
73599;SDS011;61877;48.246;9.220;2023-01-31T05:36:58;11.18;;;4.47;;
73599;SDS011;61877;48.246;9.220;2023-01-31T05:39:24;12.20;;;5.20;;
73599;SDS011;61877;48.246;9.220;2023-01-31T05:41:50;12.45;;;4.90;;
73599;SDS011;61877;48.246;9.220;2023-01-31T05:44:16;16.15;;;5.55;;
73599;SDS011;61877;48.246;9.220;2023-01-31T05:46:41;13.97;;;5.20;;
73599;SDS011;61877;48.246;9.220;2023-01-31T05:49:08;12.27;;;4.87;;
73599;SDS011;61877;48.246;9.220;2023-01-31T05:51:33;12.50;;;5.20;;
73599;SDS011;61877;48.246;9.220;2023-01-31T05:53:59;12.83;;;4.63;;
73599;SDS011;61877;48.246;9.220;2023-01-31T05:56:24;12.63;;;5.07;;
73599;SDS011;61877;48.246;9.220;2023-01-31T05:58:50;11.97;;;5.40;;
73599;SDS011;61877;48.246;9.220;2023-01-31T06:01:15;13.17;;;4.93;;
73599;SDS011;61877;48.246;9.220;2023-01-31T06:03:41;11.55;;;4.65;;
73599;SDS011;61877;48.246;9.220;2023-01-31T06:06:07;11.73;;;5.37;;
73599;SDS011;61877;48.246;9.220;2023-01-31T06:08:33;12.43;;;5.20;;
73599;SDS011;61877;48.246;9.220;2023-01-31T06:11:00;13.57;;;5.00;;
73599;SDS011;61877;48.246;9.220;2023-01-31T06:13:25;13.07;;;5.53;;
73599;SDS011;61877;48.246;9.220;2023-01-31T06:15:51;11.97;;;4.97;;
73599;SDS011;61877;48.246;9.220;2023-01-31T06:18:16;12.17;;;5.37;;
73599;SDS011;61877;48.246;9.220;2023-01-31T06:20:41;10.67;;;5.10;;
73599;SDS011;61877;48.246;9.220;2023-01-31T06:23:08;12.48;;;4.97;;
73599;SDS011;61877;48.246;9.220;2023-01-31T06:25:33;12.33;;;5.00;;
73599;SDS011;61877;48.246;9.220;2023-01-31T06:27:59;10.75;;;4.65;;
73599;SDS011;61877;48.246;9.220;2023-01-31T06:30:24;11.23;;;4.73;;
73599;SDS011;61877;48.246;9.220;2023-01-31T06:32:49;13.23;;;5.30;;
73599;SDS011;61877;48.246;9.220;2023-01-31T06:35:15;11.57;;;4.50;;
73599;SDS011;61877;48.246;9.220;2023-01-31T06:37:40;11.82;;;5.32;;
73599;SDS011;61877;48.246;9.220;2023-01-31T06:40:08;10.63;;;4.37;;
73599;SDS011;61877;48.246;9.220;2023-01-31T06:42:34;11.00;;;4.90;;
73599;SDS011;61877;48.246;9.220;2023-01-31T06:44:59;11.73;;;4.93;;
73599;SDS011;61877;48.246;9.220;2023-01-31T06:47:25;11.97;;;4.93;;
73599;SDS011;61877;48.246;9.220;2023-01-31T06:49:50;12.90;;;5.33;;
73599;SDS011;61877;48.246;9.220;2023-01-31T06:52:16;12.03;;;4.97;;
73599;SDS011;61877;48.246;9.220;2023-01-31T06:54:41;10.85;;;5.10;;
73599;SDS011;61877;48.246;9.220;2023-01-31T06:57:08;13.13;;;5.20;;
73599;SDS011;61877;48.246;9.220;2023-01-31T06:59:33;13.70;;;4.90;;
73599;SDS011;61877;48.246;9.220;2023-01-31T07:01:59;16.43;;;5.60;;
73599;SDS011;61877;48.246;9.220;2023-01-31T07:04:24;15.47;;;5.70;;
73599;SDS011;61877;48.246;9.220;2023-01-31T07:06:49;14.57;;;5.50;;
73599;SDS011;61877;48.246;9.220;2023-01-31T07:09:15;14.40;;;5.47;;
73599;SDS011;61877;48.246;9.220;2023-01-31T07:11:40;13.30;;;5.40;;
73599;SDS011;61877;48.246;9.220;2023-01-31T07:14:07;13.17;;;4.93;;
73599;SDS011;61877;48.246;9.220;2023-01-31T07:16:33;13.07;;;5.10;;
73599;SDS011;61877;48.246;9.220;2023-01-31T07:19:01;15.13;;;4.97;;
73599;SDS011;61877;48.246;9.220;2023-01-31T07:21:29;9.98;;;5.05;;
73599;SDS011;61877;48.246;9.220;2023-01-31T07:45:14;18.20;;;7.50;;
73599;SDS011;61877;48.246;9.220;2023-01-31T07:47:40;18.55;;;6.47;;
73599;SDS011;61877;48.246;9.220;2023-01-31T07:50:05;15.30;;;6.00;;
73599;SDS011;61877;48.246;9.220;2023-01-31T07:52:31;18.77;;;7.33;;
73599;SDS011;61877;48.246;9.220;2023-01-31T07:54:57;14.23;;;5.72;;
73599;SDS011;61877;48.246;9.220;2023-01-31T07:57:22;12.53;;;5.13;;
73599;SDS011;61877;48.246;9.220;2023-01-31T07:59:48;16.53;;;7.23;;
73599;SDS011;61877;48.246;9.220;2023-01-31T08:02:15;16.30;;;7.00;;
73599;SDS011;61877;48.246;9.220;2023-01-31T08:04:41;13.63;;;6.03;;
73599;SDS011;61877;48.246;9.220;2023-01-31T08:07:06;15.30;;;6.35;;
73599;SDS011;61877;48.246;9.220;2023-01-31T08:09:32;11.37;;;4.80;;
73599;SDS011;61877;48.246;9.220;2023-01-31T08:11:57;14.83;;;7.23;;
73599;SDS011;61877;48.246;9.220;2023-01-31T08:14:23;16.53;;;6.03;;
73599;SDS011;61877;48.246;9.220;2023-01-31T08:16:50;13.75;;;6.70;;
73599;SDS011;61877;48.246;9.220;2023-01-31T08:19:46;13.88;;;5.85;;
73599;SDS011;61877;48.246;9.220;2023-01-31T08:22:28;11.98;;;5.25;;
73599;SDS011;61877;48.246;9.220;2023-01-31T08:24:58;11.95;;;4.75;;
73599;SDS011;61877;48.246;9.220;2023-01-31T08:27:24;11.57;;;4.90;;
73599;SDS011;61877;48.246;9.220;2023-01-31T08:30:05;11.15;;;4.50;;
73599;SDS011;61877;48.246;9.220;2023-01-31T08:32:31;8.87;;;4.00;;
73599;SDS011;61877;48.246;9.220;2023-01-31T08:35:00;11.05;;;4.47;;
73599;SDS011;61877;48.246;9.220;2023-01-31T08:37:33;11.77;;;4.20;;
73599;SDS011;61877;48.246;9.220;2023-01-31T08:39:59;9.65;;;4.35;;
73599;SDS011;61877;48.246;9.220;2023-01-31T08:42:24;9.80;;;4.20;;
73599;SDS011;61877;48.246;9.220;2023-01-31T08:44:50;11.60;;;4.40;;
73599;SDS011;61877;48.246;9.220;2023-01-31T08:47:15;12.10;;;4.67;;
73599;SDS011;61877;48.246;9.220;2023-01-31T08:49:40;11.33;;;4.40;;
73599;SDS011;61877;48.246;9.220;2023-01-31T08:52:07;10.90;;;4.10;;
73599;SDS011;61877;48.246;9.220;2023-01-31T08:54:33;9.88;;;4.07;;
73599;SDS011;61877;48.246;9.220;2023-01-31T08:57:08;11.93;;;4.10;;
73599;SDS011;61877;48.246;9.220;2023-01-31T08:59:58;12.48;;;4.40;;
73599;SDS011;61877;48.246;9.220;2023-01-31T09:02:25;9.43;;;4.28;;
73599;SDS011;61877;48.246;9.220;2023-01-31T09:04:52;12.63;;;4.37;;
73599;SDS011;61877;48.246;9.220;2023-01-31T09:07:37;9.02;;;4.20;;
73599;SDS011;61877;48.246;9.220;2023-01-31T09:13:07;10.50;;;4.20;;
73599;SDS011;61877;48.246;9.220;2023-01-31T09:15:34;10.32;;;4.05;;
73599;SDS011;61877;48.246;9.220;2023-01-31T09:18:06;9.40;;;3.92;;
73599;SDS011;61877;48.246;9.220;2023-01-31T09:20:36;10.55;;;3.60;;
73599;SDS011;61877;48.246;9.220;2023-01-31T09:23:02;10.97;;;4.80;;
73599;SDS011;61877;48.246;9.220;2023-01-31T09:25:28;10.93;;;4.45;;
73599;SDS011;61877;48.246;9.220;2023-01-31T09:27:55;9.30;;;4.10;;
73599;SDS011;61877;48.246;9.220;2023-01-31T09:30:21;8.87;;;3.57;;
73599;SDS011;61877;48.246;9.220;2023-01-31T09:32:47;10.30;;;4.00;;
73599;SDS011;61877;48.246;9.220;2023-01-31T09:35:17;12.33;;;4.17;;
73599;SDS011;61877;48.246;9.220;2023-01-31T09:37:42;10.27;;;3.93;;
73599;SDS011;61877;48.246;9.220;2023-01-31T09:40:10;10.27;;;3.93;;
73599;SDS011;61877;48.246;9.220;2023-01-31T09:42:43;8.73;;;3.70;;
73599;SDS011;61877;48.246;9.220;2023-01-31T09:45:10;11.20;;;3.20;;
73599;SDS011;61877;48.246;9.220;2023-01-31T09:47:39;10.38;;;4.22;;
73599;SDS011;61877;48.246;9.220;2023-01-31T09:50:11;11.45;;;3.65;;
73599;SDS011;61877;48.246;9.220;2023-01-31T09:52:43;9.35;;;3.55;;
73599;SDS011;61877;48.246;9.220;2023-01-31T09:55:14;10.43;;;4.10;;
73599;SDS011;61877;48.246;9.220;2023-01-31T09:57:42;12.05;;;4.03;;
73599;SDS011;61877;48.246;9.220;2023-01-31T10:00:17;9.57;;;3.70;;
73599;SDS011;61877;48.246;9.220;2023-01-31T10:02:53;11.20;;;4.20;;
73599;SDS011;61877;48.246;9.220;2023-01-31T10:05:29;8.88;;;3.88;;
73599;SDS011;61877;48.246;9.220;2023-01-31T10:11:06;10.52;;;3.83;;
73599;SDS011;61877;48.246;9.220;2023-01-31T10:13:37;10.05;;;4.28;;
73599;SDS011;61877;48.246;9.220;2023-01-31T10:16:10;9.25;;;4.00;;
73599;SDS011;61877;48.246;9.220;2023-01-31T10:18:44;11.35;;;4.00;;
73599;SDS011;61877;48.246;9.220;2023-01-31T10:21:13;12.23;;;4.10;;
73599;SDS011;61877;48.246;9.220;2023-01-31T10:23:43;11.02;;;3.90;;
73599;SDS011;61877;48.246;9.220;2023-01-31T10:26:15;9.18;;;3.53;;
73599;SDS011;61877;48.246;9.220;2023-01-31T10:28:45;10.40;;;4.05;;
73599;SDS011;61877;48.246;9.220;2023-01-31T10:31:17;9.57;;;3.90;;
73599;SDS011;61877;48.246;9.220;2023-01-31T10:33:55;10.33;;;3.30;;
73599;SDS011;61877;48.246;9.220;2023-01-31T10:36:31;8.95;;;3.33;;
73599;SDS011;61877;48.246;9.220;2023-01-31T10:39:01;9.13;;;3.30;;
73599;SDS011;61877;48.246;9.220;2023-01-31T10:44:39;10.25;;;3.70;;
73599;SDS011;61877;48.246;9.220;2023-01-31T10:47:10;9.53;;;3.47;;
73599;SDS011;61877;48.246;9.220;2023-01-31T10:49:37;10.98;;;3.90;;
73599;SDS011;61877;48.246;9.220;2023-01-31T10:52:06;10.47;;;3.53;;
73599;SDS011;61877;48.246;9.220;2023-01-31T10:54:48;11.13;;;3.67;;
73599;SDS011;61877;48.246;9.220;2023-01-31T10:57:24;9.80;;;3.30;;
73599;SDS011;61877;48.246;9.220;2023-01-31T11:00:00;10.93;;;3.80;;
73599;SDS011;61877;48.246;9.220;2023-01-31T11:02:27;10.00;;;3.58;;
73599;SDS011;61877;48.246;9.220;2023-01-31T11:04:55;7.80;;;3.40;;
73599;SDS011;61877;48.246;9.220;2023-01-31T11:07:22;11.50;;;5.17;;
73599;SDS011;61877;48.246;9.220;2023-01-31T11:09:49;9.50;;;3.47;;
73599;SDS011;61877;48.246;9.220;2023-01-31T11:12:16;9.00;;;3.38;;
73599;SDS011;61877;48.246;9.220;2023-01-31T11:14:43;7.73;;;3.20;;
73599;SDS011;61877;48.246;9.220;2023-01-31T11:17:13;9.52;;;2.88;;
73599;SDS011;61877;48.246;9.220;2023-01-31T11:19:46;8.02;;;2.50;;
73599;SDS011;61877;48.246;9.220;2023-01-31T11:22:20;8.27;;;2.90;;
73599;SDS011;61877;48.246;9.220;2023-01-31T11:24:48;7.17;;;2.40;;
73599;SDS011;61877;48.246;9.220;2023-01-31T11:27:24;9.77;;;2.72;;
73599;SDS011;61877;48.246;9.220;2023-01-31T11:29:53;8.00;;;2.70;;
73599;SDS011;61877;48.246;9.220;2023-01-31T11:32:22;10.43;;;4.50;;
73599;SDS011;61877;48.246;9.220;2023-01-31T11:34:56;11.65;;;4.68;;
73599;SDS011;61877;48.246;9.220;2023-01-31T11:37:23;8.33;;;2.70;;
73599;SDS011;61877;48.246;9.220;2023-01-31T11:39:53;8.27;;;2.90;;
73599;SDS011;61877;48.246;9.220;2023-01-31T11:42:20;7.53;;;2.70;;
73599;SDS011;61877;48.246;9.220;2023-01-31T11:44:54;7.87;;;2.40;;
73599;SDS011;61877;48.246;9.220;2023-01-31T11:47:21;7.68;;;2.17;;
73599;SDS011;61877;48.246;9.220;2023-01-31T11:49:51;7.13;;;2.30;;
73599;SDS011;61877;48.246;9.220;2023-01-31T11:52:17;7.87;;;2.10;;
73599;SDS011;61877;48.246;9.220;2023-01-31T11:54:46;6.95;;;2.58;;
73599;SDS011;61877;48.246;9.220;2023-01-31T11:57:15;7.47;;;2.50;;
73599;SDS011;61877;48.246;9.220;2023-01-31T11:59:46;7.15;;;2.70;;
73599;SDS011;61877;48.246;9.220;2023-01-31T12:02:20;6.82;;;2.20;;
73599;SDS011;61877;48.246;9.220;2023-01-31T12:04:50;7.97;;;2.40;;
73599;SDS011;61877;48.246;9.220;2023-01-31T12:07:20;9.40;;;2.30;;
73599;SDS011;61877;48.246;9.220;2023-01-31T12:09:47;8.18;;;2.30;;
73599;SDS011;61877;48.246;9.220;2023-01-31T12:12:21;8.73;;;2.20;;
73599;SDS011;61877;48.246;9.220;2023-01-31T12:14:50;6.72;;;1.77;;
73599;SDS011;61877;48.246;9.220;2023-01-31T12:17:21;7.47;;;2.03;;
73599;SDS011;61877;48.246;9.220;2023-01-31T12:19:54;7.78;;;2.15;;
73599;SDS011;61877;48.246;9.220;2023-01-31T12:22:30;8.05;;;2.35;;
73599;SDS011;61877;48.246;9.220;2023-01-31T12:25:03;7.05;;;2.08;;
73599;SDS011;61877;48.246;9.220;2023-01-31T12:27:40;7.65;;;2.55;;
73599;SDS011;61877;48.246;9.220;2023-01-31T12:30:19;7.07;;;2.20;;
73599;SDS011;61877;48.246;9.220;2023-01-31T12:35:40;7.68;;;2.50;;
73599;SDS011;61877;48.246;9.220;2023-01-31T12:38:17;7.75;;;2.50;;
73599;SDS011;61877;48.246;9.220;2023-01-31T12:41:01;9.02;;;2.90;;
73599;SDS011;61877;48.246;9.220;2023-01-31T12:43:39;7.83;;;2.90;;
73599;SDS011;61877;48.246;9.220;2023-01-31T12:46:19;8.63;;;3.30;;
73599;SDS011;61877;48.246;9.220;2023-01-31T12:48:57;8.38;;;3.08;;
73599;SDS011;61877;48.246;9.220;2023-01-31T12:51:50;6.97;;;2.90;;
73599;SDS011;61877;48.246;9.220;2023-01-31T12:54:33;8.43;;;3.10;;
73599;SDS011;61877;48.246;9.220;2023-01-31T12:57:16;7.33;;;2.87;;
73599;SDS011;61877;48.246;9.220;2023-01-31T12:59:54;7.80;;;3.13;;
73599;SDS011;61877;48.246;9.220;2023-01-31T13:02:30;6.80;;;2.80;;
73599;SDS011;61877;48.246;9.220;2023-01-31T13:05:02;6.88;;;2.92;;
73599;SDS011;61877;48.246;9.220;2023-01-31T13:07:38;8.10;;;3.03;;
73599;SDS011;61877;48.246;9.220;2023-01-31T13:12:54;8.02;;;3.20;;
73599;SDS011;61877;48.246;9.220;2023-01-31T13:15:25;8.35;;;3.47;;
73599;SDS011;61877;48.246;9.220;2023-01-31T13:17:56;8.85;;;2.78;;
73599;SDS011;61877;48.246;9.220;2023-01-31T13:20:28;9.25;;;3.08;;
73599;SDS011;61877;48.246;9.220;2023-01-31T13:22:59;7.60;;;3.10;;
73599;SDS011;61877;48.246;9.220;2023-01-31T13:25:28;7.15;;;3.08;;
73599;SDS011;61877;48.246;9.220;2023-01-31T13:28:02;7.15;;;3.00;;
73599;SDS011;61877;48.246;9.220;2023-01-31T13:30:37;7.88;;;2.88;;
73599;SDS011;61877;48.246;9.220;2023-01-31T13:33:07;8.52;;;3.30;;
73599;SDS011;61877;48.246;9.220;2023-01-31T13:35:42;7.20;;;2.53;;
73599;SDS011;61877;48.246;9.220;2023-01-31T13:38:13;8.90;;;2.90;;
73599;SDS011;61877;48.246;9.220;2023-01-31T13:40:44;7.90;;;3.35;;
73599;SDS011;61877;48.246;9.220;2023-01-31T13:43:12;7.78;;;3.10;;
73599;SDS011;61877;48.246;9.220;2023-01-31T13:45:40;8.27;;;3.38;;
73599;SDS011;61877;48.246;9.220;2023-01-31T13:48:15;7.93;;;3.27;;
73599;SDS011;61877;48.246;9.220;2023-01-31T13:50:49;9.27;;;3.47;;
73599;SDS011;61877;48.246;9.220;2023-01-31T13:53:20;7.70;;;3.33;;
73599;SDS011;61877;48.246;9.220;2023-01-31T13:55:50;8.77;;;3.30;;
73599;SDS011;61877;48.246;9.220;2023-01-31T13:58:20;9.23;;;3.50;;
73599;SDS011;61877;48.246;9.220;2023-01-31T14:00:49;7.30;;;3.27;;
73599;SDS011;61877;48.246;9.220;2023-01-31T14:03:22;7.18;;;3.13;;
73599;SDS011;61877;48.246;9.220;2023-01-31T14:05:57;10.53;;;3.40;;
73599;SDS011;61877;48.246;9.220;2023-01-31T14:08:29;7.75;;;2.92;;
73599;SDS011;61877;48.246;9.220;2023-01-31T14:14:20;8.43;;;3.38;;
73599;SDS011;61877;48.246;9.220;2023-01-31T14:16:53;9.05;;;3.30;;
73599;SDS011;61877;48.246;9.220;2023-01-31T14:22:14;8.60;;;3.30;;
73599;SDS011;61877;48.246;9.220;2023-01-31T14:27:44;6.78;;;2.83;;
73599;SDS011;61877;48.246;9.220;2023-01-31T14:30:31;9.32;;;3.33;;
73599;SDS011;61877;48.246;9.220;2023-01-31T14:33:04;9.20;;;3.47;;
73599;SDS011;61877;48.246;9.220;2023-01-31T14:35:36;9.60;;;3.10;;
73599;SDS011;61877;48.246;9.220;2023-01-31T14:38:23;8.40;;;3.10;;
73599;SDS011;61877;48.246;9.220;2023-01-31T14:41:01;8.52;;;3.50;;
73599;SDS011;61877;48.246;9.220;2023-01-31T14:43:40;8.73;;;3.30;;
73599;SDS011;61877;48.246;9.220;2023-01-31T14:46:25;7.40;;;3.13;;
73599;SDS011;61877;48.246;9.220;2023-01-31T14:49:25;7.47;;;3.20;;
73599;SDS011;61877;48.246;9.220;2023-01-31T14:52:19;7.60;;;2.80;;
73599;SDS011;61877;48.246;9.220;2023-01-31T14:55:02;8.52;;;3.30;;
73599;SDS011;61877;48.246;9.220;2023-01-31T14:57:46;11.90;;;4.70;;
73599;SDS011;61877;48.246;9.220;2023-01-31T15:00:16;8.40;;;3.60;;
73599;SDS011;61877;48.246;9.220;2023-01-31T15:02:46;8.63;;;3.55;;
73599;SDS011;61877;48.246;9.220;2023-01-31T15:05:16;10.17;;;4.13;;
73599;SDS011;61877;48.246;9.220;2023-01-31T15:08:04;8.23;;;3.90;;
73599;SDS011;61877;48.246;9.220;2023-01-31T15:10:58;9.93;;;3.92;;
73599;SDS011;61877;48.246;9.220;2023-01-31T15:13:40;7.72;;;3.35;;
73599;SDS011;61877;48.246;9.220;2023-01-31T15:16:10;7.93;;;3.10;;
73599;SDS011;61877;48.246;9.220;2023-01-31T15:18:43;7.87;;;3.17;;
73599;SDS011;61877;48.246;9.220;2023-01-31T15:21:12;9.27;;;3.17;;
73599;SDS011;61877;48.246;9.220;2023-01-31T15:23:45;8.00;;;3.58;;
73599;SDS011;61877;48.246;9.220;2023-01-31T15:26:12;7.63;;;3.40;;
73599;SDS011;61877;48.246;9.220;2023-01-31T15:28:42;8.07;;;3.28;;
73599;SDS011;61877;48.246;9.220;2023-01-31T15:31:12;9.77;;;3.30;;
73599;SDS011;61877;48.246;9.220;2023-01-31T15:33:42;7.38;;;3.08;;
73599;SDS011;61877;48.246;9.220;2023-01-31T15:36:14;10.48;;;3.55;;
73599;SDS011;61877;48.246;9.220;2023-01-31T15:38:46;10.27;;;3.58;;
73599;SDS011;61877;48.246;9.220;2023-01-31T15:41:17;8.68;;;3.40;;
73599;SDS011;61877;48.246;9.220;2023-01-31T15:43:45;8.20;;;3.53;;
73599;SDS011;61877;48.246;9.220;2023-01-31T15:46:12;10.00;;;3.70;;